DXR Airport (Danbury Muni) Information

FAA: DXR - ICAO: KDXR

DXR Airport Location

State Connecticut
County Fairfield
City Danbury
DXR Airport is 3 miles southwest of Danbury, CT.
Latitude 41-22-17.5000N
Longitude 073-28-55.9000W
Elevation 456ft

KDXR Airport METARs

METAR KDXR 281353Z 04007KT 10SM OVC033 11/05 A2999 RMK AO2 SLP156 T01060050
Altimeter 29.99"
Temperature 10.6°C (51.1°F)
Wind 40° at 7KT
Clouds overcast at 3,300ft
Visibility 10.0mi
Time observed: 2021-10-28T13:53:00Z

DXR Airport Details

Status Operational
Activation April 1940
Ownership Public
Usage Public
Chart NEW YORK
ATC on-site Yes
Beacon schedule sunset-sunrise
Beacon color clear green

DXR Airport Contacts

Owner CITY OF DANBURY
Owner address CITY HALL, DANBURY, CT 06810
Owner phone 203-797-4624
Manager JIM SKI
Manager address 31 CHESTNUT HILL RD, COLCHESTER, CT 06415
Manager phone (860) 334-3974

DXR Airport (Danbury Muni) Radio Frequencies

DXR (Airport) Radio Frequencies

UNICOM 122.95
Common traffic advisory frequency (CTAF) 119.4